createdAt,value
2023-01-21T00:00:46.056Z,1096.00
2023-01-21T00:01:45.967Z,1094.00
2023-01-21T00:02:45.891Z,1094.00
2023-01-21T00:03:45.934Z,1089.00
2023-01-21T00:04:45.729Z,1086.00
2023-01-21T00:05:45.649Z,1084.00
2023-01-21T00:06:45.577Z,1084.00
2023-01-21T01:28:38.893Z,1053.00
2023-01-21T01:29:38.843Z,1052.00
2023-01-21T01:30:38.743Z,1053.00
2023-01-21T01:31:38.737Z,1057.00
2023-01-21T01:32:38.567Z,1057.00
2023-01-21T01:33:38.492Z,1056.00
2023-01-21T01:34:38.398Z,1052.00
2023-01-21T01:35:38.325Z,1054.00
2023-01-21T01:36:38.246Z,1050.00
2023-01-21T01:37:38.160Z,1051.00
2023-01-21T01:38:38.080Z,1052.00
2023-01-21T01:39:37.993Z,1052.00
2023-01-21T01:40:37.917Z,1053.00
2023-01-21T01:41:37.854Z,1052.00
2023-01-21T01:42:37.761Z,1050.00
2023-01-21T01:43:37.671Z,1046.00
2023-01-21T01:44:37.597Z,1042.00
2023-01-21T01:45:37.507Z,1043.00
2023-01-21T01:46:37.474Z,1042.00
2023-01-21T01:47:37.333Z,1044.00
2023-01-21T01:48:37.256Z,1043.00
2023-01-21T01:49:37.184Z,1043.00
2023-01-21T01:50:37.096Z,1042.00
2023-01-21T01:51:37.023Z,1038.00
2023-01-21T01:52:36.932Z,1041.00
2023-01-21T01:53:36.848Z,1041.00
2023-01-21T01:54:36.768Z,1041.00
2023-01-21T01:55:36.687Z,1041.00
2023-01-21T01:56:36.601Z,1042.00
2023-01-21T01:57:36.527Z,1042.00
2023-01-21T01:58:36.442Z,1044.00
2023-01-21T01:59:36.371Z,1043.00
2023-01-21T02:00:36.289Z,1041.00
2023-01-21T02:01:36.238Z,1039.00
2023-01-21T02:02:36.134Z,1041.00
2023-01-21T02:03:36.056Z,1039.00
2023-01-21T02:04:35.966Z,1040.00
2023-01-21T02:05:35.895Z,1045.00
2023-01-21T02:06:35.818Z,1047.00
2023-01-21T02:07:35.739Z,1049.00
2023-01-21T02:08:35.661Z,1047.00
2023-01-21T02:09:35.581Z,1042.00
2023-01-21T02:10:35.516Z,1041.00
2023-01-21T03:53:27.300Z,998.00
2023-01-21T03:54:27.232Z,999.00
2023-01-21T03:55:27.165Z,997.00
2023-01-21T03:56:27.097Z,996.00
2023-01-21T03:57:27.010Z,996.00
2023-01-21T03:58:26.927Z,993.00
2023-01-21T03:59:26.859Z,993.00
2023-01-21T04:00:26.768Z,996.00
2023-01-21T04:01:26.694Z,998.00
2023-01-21T04:02:26.615Z,995.00
2023-01-21T04:03:26.531Z,993.00
2023-01-21T04:04:26.457Z,995.00
2023-01-21T04:05:26.390Z,996.00
2023-01-21T04:06:26.314Z,995.00
2023-01-21T04:07:26.245Z,992.00
2023-01-21T04:08:26.182Z,991.00
2023-01-21T04:09:26.099Z,990.00
2023-01-21T04:10:26.032Z,986.00
2023-01-21T04:11:25.944Z,984.00
2023-01-21T04:12:25.866Z,983.00
2023-01-21T04:13:25.791Z,981.00
2023-01-21T04:14:25.694Z,979.00
2023-01-21T04:15:25.618Z,982.00
2023-01-21T04:16:25.582Z,982.00
2023-01-21T05:22:20.156Z,960.00
2023-01-21T05:23:20.075Z,962.00
2023-01-21T05:24:20.000Z,963.00
2023-01-21T05:25:19.910Z,961.00
2023-01-21T05:26:19.834Z,964.00
2023-01-21T05:27:19.769Z,963.00
2023-01-21T05:28:19.692Z,959.00
2023-01-21T05:29:19.606Z,954.00
2023-01-21T05:30:19.526Z,954.00
2023-01-21T05:31:19.553Z,955.00
2023-01-21T05:32:19.365Z,958.00
2023-01-21T05:33:19.299Z,961.00
2023-01-21T05:34:19.210Z,965.00
2023-01-21T05:35:19.145Z,965.00
2023-01-21T05:36:19.055Z,965.00
2023-01-21T05:37:18.989Z,963.00
2023-01-21T05:38:18.878Z,961.00
2023-01-21T05:39:18.801Z,962.00
2023-01-21T05:40:19.136Z,959.00
2023-01-21T05:41:18.651Z,957.00
2023-01-21T05:42:18.560Z,956.00
2023-01-21T05:43:18.488Z,953.00
2023-01-21T05:44:18.412Z,951.00
2023-01-21T05:45:18.320Z,957.00
2023-01-21T05:46:18.304Z,960.00
2023-01-21T05:47:18.167Z,958.00
2023-01-21T05:48:18.086Z,954.00
2023-01-21T05:49:18.001Z,953.00
2023-01-21T05:50:18.284Z,952.00
2023-01-21T05:51:17.895Z,951.00
2023-01-21T05:52:17.811Z,952.00
2023-01-21T05:53:17.733Z,949.00
2023-01-21T05:54:17.652Z,945.00
2023-01-21T05:55:17.649Z,943.00
2023-01-21T05:56:17.470Z,941.00
2023-01-21T05:57:17.409Z,941.00
2023-01-21T05:58:17.310Z,939.00
2023-01-21T05:59:17.225Z,939.00
2023-01-21T06:00:17.466Z,936.00
2023-01-21T06:01:17.074Z,933.00
2023-01-21T06:02:17.067Z,933.00
2023-01-21T06:03:16.927Z,936.00
2023-01-21T06:04:16.821Z,939.00
2023-01-21T06:05:16.759Z,937.00
2023-01-21T06:06:16.679Z,938.00
2023-01-21T06:07:16.587Z,940.00
2023-01-21T06:08:16.506Z,943.00
2023-01-21T06:09:16.418Z,940.00
2023-01-21T06:10:16.655Z,939.00
2023-01-21T06:11:16.272Z,942.00
2023-01-21T06:12:16.201Z,941.00
2023-01-21T06:13:16.124Z,940.00
2023-01-21T06:14:16.034Z,939.00
2023-01-21T06:15:15.958Z,938.00
2023-01-21T06:16:15.878Z,936.00
2023-01-21T06:17:15.789Z,934.00
2023-01-21T06:18:15.719Z,931.00
2023-01-21T06:19:15.621Z,931.00
2023-01-21T06:20:15.859Z,933.00
2023-01-21T07:36:09.728Z,904.00
2023-01-21T07:37:09.708Z,903.00
2023-01-21T07:38:09.600Z,903.00
2023-01-21T07:39:09.516Z,901.00
2023-01-21T07:40:09.433Z,903.00
2023-01-21T07:41:09.363Z,903.00
2023-01-21T07:42:09.277Z,901.00
2023-01-21T07:43:09.210Z,902.00
2023-01-21T07:44:09.131Z,903.00
2023-01-21T07:45:09.053Z,903.00
2023-01-21T07:46:09.009Z,903.00
2023-01-21T07:47:08.900Z,901.00
2023-01-21T07:48:08.813Z,898.00
2023-01-21T07:49:08.748Z,894.00
2023-01-21T07:50:08.912Z,893.00
2023-01-21T07:51:08.642Z,891.00
2023-01-21T07:52:08.516Z,893.00
2023-01-21T07:53:08.450Z,895.00
2023-01-21T07:54:08.370Z,892.00
2023-01-21T07:55:09.239Z,892.00
2023-01-21T07:56:08.225Z,894.00
2023-01-21T07:57:08.155Z,891.00
2023-01-21T07:58:08.074Z,892.00
2023-01-21T07:59:07.991Z,894.00
2023-01-21T08:00:07.921Z,895.00
2023-01-21T08:01:07.854Z,897.00
2023-01-21T08:02:07.841Z,896.00
2023-01-21T08:03:07.690Z,898.00
2023-01-21T08:04:07.604Z,900.00
2023-01-21T08:05:07.540Z,900.00
2023-01-21T08:06:07.452Z,898.00
2023-01-21T08:07:07.392Z,896.00
2023-01-21T08:08:07.331Z,896.00
2023-01-21T08:09:07.261Z,894.00
2023-01-21T08:10:07.188Z,889.00
2023-01-21T08:11:07.109Z,889.00
2023-01-21T08:12:07.034Z,890.00
2023-01-21T08:13:06.941Z,888.00
2023-01-21T08:14:06.874Z,886.00
2023-01-21T08:15:06.792Z,888.00
2023-01-21T08:16:06.767Z,889.00
2023-01-21T08:17:06.656Z,890.00
2023-01-21T08:18:06.586Z,893.00
2023-01-21T08:19:06.504Z,892.00
2023-01-21T08:20:06.425Z,893.00
2023-01-21T08:21:06.341Z,891.00
2023-01-21T08:22:06.280Z,891.00
2023-01-21T08:23:06.203Z,890.00
2023-01-21T08:24:06.131Z,890.00
2023-01-21T08:25:06.042Z,891.00
2023-01-21T08:26:05.963Z,893.00
2023-01-21T08:27:05.888Z,895.00
2023-01-21T08:28:05.819Z,893.00
2023-01-21T08:29:05.746Z,890.00
2023-01-21T08:30:05.667Z,890.00
2023-01-21T08:31:05.781Z,890.00
2023-01-21T08:32:05.506Z,888.00
2023-01-21T08:42:04.722Z,883.00
2023-01-21T08:44:04.572Z,885.00
2023-01-21T08:45:04.498Z,882.00
2023-01-21T08:46:04.480Z,885.00
2023-01-21T08:47:04.349Z,882.00
2023-01-21T08:48:04.284Z,879.00
2023-01-21T08:49:04.196Z,880.00
2023-01-21T08:50:04.129Z,880.00
2023-01-21T08:51:04.087Z,877.00
2023-01-21T08:52:03.970Z,878.00
2023-01-21T08:53:03.883Z,876.00
2023-01-21T08:54:03.815Z,877.00
2023-01-21T08:55:03.740Z,877.00
2023-01-21T08:56:03.662Z,875.00
2023-01-21T08:57:03.587Z,875.00
2023-01-21T08:58:03.515Z,874.00
2023-01-21T08:59:03.424Z,872.00
2023-01-21T09:00:03.341Z,871.00
2023-01-21T09:01:03.288Z,872.00
2023-01-21T09:02:03.238Z,872.00
2023-01-21T09:03:03.123Z,874.00
2023-01-21T09:04:03.048Z,874.00
2023-01-21T09:05:02.955Z,874.00
2023-01-21T09:06:02.884Z,875.00
2023-01-21T09:07:02.805Z,876.00
2023-01-21T09:08:02.729Z,875.00
2023-01-21T09:09:02.651Z,874.00
2023-01-21T10:00:58.643Z,854.00
2023-01-21T10:01:58.556Z,853.00
2023-01-21T10:02:58.491Z,853.00
2023-01-21T10:03:58.404Z,854.00
2023-01-21T10:04:58.335Z,858.00
2023-01-21T10:05:58.271Z,860.00
2023-01-21T10:06:58.187Z,858.00
2023-01-21T10:07:58.127Z,858.00
2023-01-21T10:08:58.033Z,856.00
2023-01-21T10:09:57.964Z,857.00
2023-01-21T10:10:57.876Z,856.00
2023-01-21T10:11:57.806Z,853.00
2023-01-21T10:12:57.724Z,850.00
2023-01-21T10:13:57.653Z,849.00
2023-01-21T10:14:57.577Z,847.00
2023-01-21T10:15:57.506Z,849.00
2023-01-21T10:16:57.472Z,852.00
2023-01-21T10:17:57.352Z,854.00
2023-01-21T10:18:57.290Z,852.00
2023-01-21T10:19:57.211Z,853.00
2023-01-21T10:20:57.128Z,853.00
2023-01-21T10:21:57.074Z,851.00
2023-01-21T10:22:56.980Z,852.00
2023-01-21T10:23:56.923Z,853.00
2023-01-21T10:24:56.848Z,851.00
2023-01-21T10:25:56.751Z,853.00
2023-01-21T10:26:56.671Z,851.00
2023-01-21T10:27:56.607Z,848.00
2023-01-21T10:28:56.544Z,843.00
2023-01-21T10:29:56.461Z,841.00
2023-01-21T10:30:56.470Z,839.00
2023-01-21T10:31:56.311Z,840.00
2023-01-21T10:32:56.244Z,840.00
2023-01-21T10:33:56.168Z,840.00
2023-01-21T10:34:56.078Z,839.00
2023-01-21T10:35:56.007Z,841.00
2023-01-21T10:36:55.927Z,841.00
2023-01-21T10:37:55.854Z,844.00
2023-01-21T10:38:55.774Z,845.00
2023-01-21T10:39:55.708Z,845.00
2023-01-21T10:40:55.635Z,844.00
2023-01-21T10:41:55.565Z,842.00
2023-01-21T11:37:51.349Z,826.00
2023-01-21T11:38:51.277Z,825.00
2023-01-21T11:39:51.200Z,822.00
2023-01-21T12:47:46.089Z,796.00
2023-01-21T12:48:45.994Z,796.00
2023-01-21T12:49:45.918Z,797.00
2023-01-21T12:50:45.899Z,799.00
2023-01-21T12:51:45.761Z,801.00
2023-01-21T12:52:45.681Z,801.00
2023-01-21T12:53:45.621Z,798.00
2023-01-21T12:54:45.536Z,797.00
2023-01-21T13:51:41.312Z,790.00
2023-01-21T13:52:41.285Z,790.00
2023-01-21T13:53:41.161Z,790.00
2023-01-21T13:54:41.084Z,790.00
2023-01-21T13:55:41.012Z,788.00
2023-01-21T13:56:40.936Z,786.00
2023-01-21T13:57:40.852Z,788.00
2023-01-21T13:58:40.793Z,787.00
2023-01-21T13:59:40.720Z,788.00
2023-01-21T14:00:40.676Z,789.00
2023-01-21T14:01:40.628Z,788.00
2023-01-21T14:02:40.503Z,787.00
2023-01-21T14:03:40.428Z,785.00
2023-01-21T14:04:40.349Z,783.00
2023-01-21T14:05:40.266Z,784.00
2023-01-21T14:06:40.192Z,782.00
2023-01-21T14:07:40.128Z,786.00
2023-01-21T14:08:40.067Z,787.00
2023-01-21T14:09:39.987Z,788.00
2023-01-21T14:10:39.905Z,789.00
2023-01-21T14:11:39.834Z,787.00
2023-01-21T14:12:39.761Z,785.00
2023-01-21T14:13:39.681Z,783.00
2023-01-21T14:14:39.622Z,782.00
2023-01-21T14:15:39.530Z,782.00
2023-01-21T14:16:39.485Z,785.00
2023-01-21T14:17:39.385Z,785.00
2023-01-21T14:18:39.327Z,784.00
2023-01-21T14:19:39.238Z,783.00
2023-01-21T14:20:39.161Z,780.00
2023-01-21T14:21:39.087Z,778.00
2023-01-21T14:22:39.021Z,779.00
2023-01-21T14:23:38.942Z,780.00
2023-01-21T14:24:38.875Z,778.00
2023-01-21T14:25:38.792Z,775.00
2023-01-21T14:26:38.710Z,777.00
2023-01-21T14:27:38.649Z,781.00
2023-01-21T14:28:38.605Z,780.00
2023-01-21T14:29:38.503Z,782.00
2023-01-21T14:30:38.466Z,786.00
2023-01-21T14:31:38.413Z,782.00
2023-01-21T14:32:38.279Z,782.00
2023-01-21T14:33:38.185Z,783.00
2023-01-21T14:34:38.116Z,783.00
2023-01-21T14:35:38.050Z,783.00
2023-01-21T14:36:37.997Z,783.00
2023-01-21T14:37:37.948Z,782.00
2023-01-21T14:38:37.904Z,782.00
2023-01-21T14:39:37.868Z,780.00
2023-01-21T14:40:37.795Z,779.00
2023-01-21T14:41:37.770Z,776.00
2023-01-21T14:42:37.959Z,774.00
2023-01-21T14:43:37.729Z,775.00
2023-01-21T14:44:37.694Z,775.00
2023-01-21T14:45:37.680Z,774.00
2023-01-21T14:46:37.591Z,772.00
2023-01-21T14:47:37.573Z,774.00
2023-01-21T14:48:37.544Z,774.00
2023-01-21T14:49:37.517Z,773.00
2023-01-21T14:50:37.495Z,773.00
2023-01-21T14:51:37.476Z,771.00
2023-01-21T14:52:39.267Z,768.00
2023-01-21T14:53:37.442Z,766.00
2023-01-21T14:54:37.422Z,762.00
2023-01-21T14:55:37.339Z,764.00
2023-01-21T14:56:37.264Z,765.00
2023-01-21T14:57:37.209Z,764.00
2023-01-21T14:58:37.128Z,763.00
2023-01-21T14:59:37.053Z,763.00
2023-01-21T15:00:37.023Z,762.00
2023-01-21T15:01:36.997Z,761.00
2023-01-21T15:02:36.889Z,760.00
2023-01-21T15:03:36.759Z,762.00
2023-01-21T15:04:36.748Z,762.00
2023-01-21T15:05:36.629Z,763.00
2023-01-21T15:06:36.549Z,763.00
2023-01-21T15:07:36.481Z,760.00
2023-01-21T15:08:36.400Z,761.00
2023-01-21T15:09:36.341Z,761.00
2023-01-21T15:10:36.255Z,758.00
2023-01-21T15:11:36.183Z,759.00
2023-01-21T15:12:36.113Z,762.00
2023-01-21T15:13:36.037Z,763.00
2023-01-21T15:14:35.969Z,762.00
2023-01-21T15:15:35.903Z,766.00
2023-01-21T15:16:35.896Z,762.00
2023-01-21T15:17:35.958Z,760.00
2023-01-21T15:18:36.875Z,761.00
2023-01-21T15:19:35.592Z,760.00
2023-01-21T15:23:35.252Z,766.00
2023-01-21T15:24:35.161Z,765.00
2023-01-21T15:25:35.074Z,763.00
2023-01-21T15:26:34.990Z,763.00
2023-01-21T15:27:34.888Z,764.00
2023-01-21T15:28:34.810Z,765.00
2023-01-21T15:29:34.724Z,766.00
2023-01-21T15:30:34.702Z,766.00
2023-01-21T15:31:34.640Z,765.00
2023-01-21T15:32:34.458Z,761.00
2023-01-21T15:33:34.356Z,760.00
2023-01-21T15:34:34.290Z,760.00
2023-01-21T15:35:34.211Z,758.00
2023-01-21T15:36:34.134Z,759.00
2023-01-21T15:37:34.066Z,759.00
2023-01-21T15:38:33.998Z,761.00
2023-01-21T15:39:33.932Z,758.00
2023-01-21T15:40:33.864Z,758.00
2023-01-21T15:41:33.805Z,761.00
2023-01-21T15:42:33.702Z,758.00
2023-01-21T15:43:33.635Z,757.00
2023-01-21T15:44:33.564Z,757.00
2023-01-21T15:45:33.485Z,756.00
2023-01-21T15:46:33.412Z,754.00
2023-01-21T16:05:32.061Z,740.00
2023-01-21T16:07:31.919Z,740.00
2023-01-21T16:08:31.862Z,742.00
2023-01-21T16:09:31.851Z,742.00
2023-01-21T16:10:31.727Z,744.00
2023-01-21T16:11:31.655Z,742.00
2023-01-21T16:12:31.597Z,741.00
2023-01-21T16:13:31.514Z,742.00
2023-01-21T16:14:31.454Z,746.00
2023-01-21T17:12:27.426Z,745.00
2023-01-21T17:13:27.359Z,742.00
2023-01-21T17:14:27.280Z,740.00
2023-01-21T17:15:27.261Z,740.00
2023-01-21T17:16:27.167Z,740.00
2023-01-21T17:17:27.088Z,737.00
2023-01-21T17:18:27.024Z,739.00
2023-01-21T17:19:26.935Z,737.00
2023-01-21T17:20:26.874Z,733.00
2023-01-21T17:21:26.818Z,732.00
2023-01-21T17:22:26.724Z,729.00
2023-01-21T17:23:26.671Z,732.00
2023-01-21T17:24:26.613Z,735.00
2023-01-21T17:25:26.516Z,735.00
2023-01-21T17:26:26.452Z,740.00
2023-01-21T17:27:26.471Z,739.00
2023-01-21T17:28:26.329Z,740.00
2023-01-21T17:29:26.256Z,738.00
2023-01-21T17:30:26.177Z,738.00
2023-01-21T17:31:26.226Z,739.00
2023-01-21T17:32:26.069Z,740.00
2023-01-21T17:33:25.990Z,739.00
2023-01-21T17:34:25.938Z,741.00
2023-01-21T17:35:25.861Z,740.00
2023-01-21T17:36:25.804Z,737.00
2023-01-21T17:37:25.739Z,736.00
2023-01-21T17:38:25.664Z,733.00
2023-01-21T17:39:25.599Z,735.00
2023-01-21T17:40:25.530Z,733.00
2023-01-21T18:40:21.860Z,721.00
2023-01-21T18:41:21.790Z,720.00
2023-01-21T18:42:21.717Z,721.00
2023-01-21T18:43:21.660Z,723.00
2023-01-21T18:44:21.609Z,721.00
2023-01-21T18:45:21.550Z,724.00
2023-01-21T18:46:21.525Z,722.00
2023-01-21T18:47:21.423Z,721.00
2023-01-21T18:48:21.385Z,722.00
2023-01-21T18:49:21.306Z,722.00
2023-01-21T20:40:05.518Z,704.00
2023-01-21T20:41:05.558Z,702.00
2023-01-21T20:42:05.583Z,701.00
2023-01-21T20:43:05.633Z,700.00
2023-01-21T20:44:05.665Z,701.00
2023-01-21T20:45:05.683Z,701.00
2023-01-21T20:46:05.849Z,702.00
2023-01-21T20:47:05.739Z,701.00
2023-01-21T20:48:05.798Z,703.00
2023-01-21T20:49:05.826Z,703.00
2023-01-21T20:50:05.858Z,701.00
2023-01-21T20:51:05.907Z,700.00
2023-01-21T20:52:05.919Z,699.00
2023-01-21T20:53:05.964Z,698.00
2023-01-21T20:54:05.992Z,698.00
2023-01-21T20:55:06.027Z,698.00
2023-01-21T20:56:06.057Z,698.00
2023-01-21T20:57:06.093Z,701.00
2023-01-21T20:58:06.136Z,701.00
2023-01-21T20:59:06.158Z,703.00
2023-01-21T21:00:06.205Z,704.00
2023-01-21T21:01:06.284Z,705.00
2023-01-21T21:02:06.286Z,703.00
2023-01-21T21:03:06.308Z,701.00
2023-01-21T21:04:06.332Z,701.00
2023-01-21T21:05:06.376Z,702.00
2023-01-21T21:06:06.420Z,701.00
2023-01-21T21:07:06.448Z,700.00
2023-01-21T21:08:06.503Z,698.00
2023-01-21T21:09:06.507Z,699.00
2023-01-21T21:10:06.542Z,699.00
2023-01-21T21:11:06.576Z,699.00
2023-01-21T21:12:06.603Z,698.00
2023-01-21T21:13:06.636Z,698.00
2023-01-21T21:14:06.689Z,701.00
2023-01-21T21:15:06.711Z,699.00
2023-01-21T21:16:06.765Z,701.00
2023-01-21T21:17:06.793Z,699.00
2023-01-21T21:18:06.842Z,702.00
2023-01-21T21:19:06.859Z,701.00
2023-01-21T21:20:06.913Z,698.00
2023-01-21T21:21:06.937Z,698.00
2023-01-21T21:22:06.970Z,696.00
2023-01-21T21:23:07.014Z,699.00
2023-01-21T21:24:07.060Z,695.00
2023-01-21T21:25:07.091Z,693.00
2023-01-21T21:26:07.131Z,693.00
2023-01-21T21:27:07.166Z,693.00
2023-01-21T21:28:07.211Z,693.00
2023-01-21T21:29:07.253Z,692.00
2023-01-21T21:30:07.298Z,694.00
2023-01-21T21:31:07.387Z,694.00
2023-01-21T21:32:07.450Z,695.00
2023-01-21T21:33:07.377Z,695.00
2023-01-21T21:34:07.422Z,697.00
2023-01-21T21:35:07.450Z,697.00
2023-01-21T21:36:07.488Z,696.00
2023-01-21T21:37:07.529Z,696.00
2023-01-21T21:49:07.973Z,697.00
2023-01-21T21:50:08.006Z,694.00
2023-01-21T21:51:08.139Z,691.00
2023-01-21T21:52:08.085Z,693.00
2023-01-21T21:53:08.332Z,692.00
2023-01-21T21:54:08.160Z,690.00
2023-01-21T21:55:08.196Z,687.00
2023-01-21T21:56:08.231Z,686.00
2023-01-21T21:57:08.268Z,688.00
2023-01-21T21:58:08.299Z,685.00
2023-01-21T21:59:08.355Z,683.00
2023-01-21T22:00:08.370Z,683.00
2023-01-21T22:01:08.484Z,685.00
2023-01-21T22:02:08.482Z,685.00
2023-01-21T22:03:08.482Z,687.00
2023-01-21T22:04:08.516Z,687.00
2023-01-21T22:05:08.585Z,684.00
2023-01-21T22:06:08.597Z,687.00
2023-01-21T22:07:08.630Z,686.00
2023-01-21T22:08:08.671Z,689.00
2023-01-21T22:09:08.720Z,688.00
2023-01-21T22:10:08.735Z,685.00
2023-01-21T22:11:08.770Z,685.00
2023-01-21T22:12:08.812Z,684.00
2023-01-21T22:13:08.839Z,684.00
2023-01-21T22:14:08.880Z,688.00
2023-01-21T22:15:08.909Z,689.00
2023-01-21T22:16:08.962Z,686.00
2023-01-21T22:17:08.997Z,684.00
2023-01-21T22:18:09.032Z,681.00
2023-01-21T22:19:09.068Z,683.00
2023-01-21T22:20:09.099Z,683.00
2023-01-21T22:21:09.129Z,684.00
2023-01-21T22:22:09.182Z,681.00
2023-01-21T22:23:09.198Z,683.00
2023-01-21T22:24:09.241Z,681.00
2023-01-21T22:25:09.277Z,680.00
2023-01-21T22:26:09.330Z,681.00
2023-01-21T22:27:09.350Z,683.00
2023-01-21T22:28:09.391Z,682.00
2023-01-21T22:29:09.424Z,683.00
2023-01-21T22:30:09.457Z,681.00
2023-01-21T22:31:09.555Z,680.00
2023-01-21T22:32:09.596Z,680.00
2023-01-21T22:33:09.562Z,679.00
2023-01-21T22:34:09.594Z,678.00
2023-01-21T22:35:09.643Z,676.00
2023-01-21T22:36:09.660Z,675.00
2023-01-21T22:37:09.703Z,674.00
2023-01-21T22:38:09.737Z,677.00
2023-01-21T22:39:09.780Z,679.00
2023-01-21T22:40:09.823Z,680.00
2023-01-21T22:41:09.857Z,679.00
2023-01-21T22:42:09.893Z,678.00
2023-01-21T22:43:09.915Z,680.00
2023-01-21T22:44:09.943Z,679.00
2023-01-21T22:45:09.995Z,680.00
2023-01-21T22:46:10.134Z,681.00
2023-01-21T22:47:10.060Z,680.00
2023-01-21T22:48:10.086Z,681.00
2023-01-21T22:49:10.117Z,680.00
2023-01-21T22:50:10.153Z,680.00
2023-01-21T22:51:10.231Z,681.00
2023-01-21T22:52:10.249Z,679.00
2023-01-21T22:53:10.267Z,674.00
2023-01-21T22:54:10.300Z,669.00
2023-01-21T22:55:10.339Z,672.00
2023-01-21T22:56:10.372Z,673.00
2023-01-21T22:57:10.415Z,674.00
2023-01-21T22:58:10.434Z,673.00
2023-01-21T22:59:10.477Z,676.00
2023-01-21T23:00:10.521Z,679.00
2023-01-21T23:01:10.588Z,678.00
2023-01-21T23:02:10.609Z,677.00
2023-01-21T23:03:10.641Z,678.00
2023-01-21T23:04:10.699Z,679.00
2023-01-21T23:05:10.904Z,677.00
2023-01-21T23:06:10.765Z,676.00
2023-01-21T23:07:10.800Z,680.00
2023-01-21T23:08:10.838Z,679.00
2023-01-21T23:09:11.648Z,682.00
2023-01-21T23:10:10.909Z,681.00
2023-01-21T23:11:10.957Z,681.00
2023-01-21T23:12:10.985Z,681.00
2023-01-21T23:13:11.014Z,683.00
2023-01-21T23:14:11.052Z,686.00
2023-01-21T23:15:11.098Z,682.00
2023-01-21T23:16:11.185Z,680.00
2023-01-21T23:17:11.169Z,684.00
2023-01-21T23:18:11.191Z,682.00
2023-01-21T23:19:11.240Z,681.00
2023-01-21T23:20:11.269Z,679.00
2023-01-21T23:21:11.312Z,677.00
2023-01-21T23:22:11.349Z,677.00
2023-01-21T23:23:11.397Z,679.00
2023-01-21T23:24:11.439Z,679.00
2023-01-21T23:25:11.478Z,682.00
2023-01-21T23:26:11.507Z,682.00
2023-01-21T23:27:11.551Z,679.00
2023-01-21T23:28:11.587Z,679.00
2023-01-21T23:29:11.616Z,675.00
2023-01-21T23:30:11.652Z,676.00
2023-01-21T23:31:11.785Z,677.00
2023-01-21T23:32:11.740Z,679.00
2023-01-21T23:33:11.783Z,678.00
2023-01-21T23:34:11.820Z,678.00
2023-01-21T23:35:11.868Z,678.00
2023-01-21T23:36:11.905Z,678.00
2023-01-21T23:37:11.944Z,675.00
2023-01-21T23:38:12.041Z,672.00
2023-01-21T23:39:12.006Z,671.00
2023-01-21T23:40:12.056Z,671.00
2023-01-21T23:41:12.098Z,672.00
2023-01-21T23:42:12.133Z,674.00
2023-01-21T23:43:12.166Z,673.00
2023-01-21T23:44:12.199Z,668.00
2023-01-21T23:45:12.242Z,671.00
2023-01-21T23:46:12.312Z,672.00
2023-01-21T23:47:12.315Z,672.00
2023-01-21T23:48:12.350Z,673.00
2023-01-21T23:49:12.387Z,676.00
2023-01-21T23:50:12.427Z,672.00
2023-01-21T23:51:12.534Z,674.00
2023-01-21T23:52:12.512Z,673.00
2023-01-21T23:53:12.538Z,673.00
2023-01-21T23:54:12.585Z,672.00
2023-01-21T23:55:12.629Z,673.00
2023-01-21T23:56:12.660Z,675.00
2023-01-21T23:57:12.711Z,675.00
2023-01-21T23:58:12.735Z,675.00
2023-01-21T23:59:12.774Z,673.00
